createdAt,value
2017-01-23T00:00:07.606Z,960.94
2017-01-23T00:01:08.151Z,960.93
2017-01-23T00:02:07.676Z,960.89
2017-01-23T00:03:08.300Z,960.91
2017-01-23T00:04:07.848Z,960.95
2017-01-23T00:05:07.530Z,961.00
2017-01-23T00:06:08.241Z,960.96
2017-01-23T00:07:07.893Z,960.95
2017-01-23T00:08:07.600Z,960.94
2017-01-23T00:09:08.242Z,960.93
2017-01-23T00:10:07.877Z,960.98
2017-01-23T00:11:07.620Z,960.97
2017-01-23T00:12:08.183Z,960.98
2017-01-23T00:13:07.719Z,960.97
2017-01-23T00:14:08.181Z,960.97
2017-01-23T00:15:07.760Z,960.99
2017-01-23T00:16:08.306Z,961.03
2017-01-23T00:17:07.929Z,961.01
2017-01-23T00:18:07.457Z,960.99
2017-01-23T00:19:08.071Z,960.98
2017-01-23T00:20:07.739Z,961.03
2017-01-23T00:21:08.301Z,960.98
2017-01-23T00:22:07.949Z,960.94
2017-01-23T00:23:07.546Z,960.99
2017-01-23T00:24:08.145Z,960.96
2017-01-23T00:25:07.645Z,960.97
2017-01-23T00:26:08.241Z,960.97
2017-01-23T00:27:07.825Z,960.94
2017-01-23T00:28:07.476Z,960.97
2017-01-23T00:29:08.178Z,960.96
2017-01-23T00:30:07.824Z,960.94
2017-01-23T00:31:07.346Z,960.87
2017-01-23T00:32:07.828Z,960.89
2017-01-23T00:33:07.396Z,960.88
2017-01-23T00:34:08.025Z,960.85
2017-01-23T00:35:07.626Z,960.81
2017-01-23T00:36:08.235Z,960.82
2017-01-23T00:37:07.830Z,960.83
2017-01-23T00:38:07.320Z,960.78
2017-01-23T00:39:08.025Z,960.80
2017-01-23T00:40:07.729Z,960.77
2017-01-23T00:41:08.356Z,960.74
2017-01-23T00:42:07.792Z,960.74
2017-01-23T00:43:07.515Z,960.75
2017-01-23T00:44:08.095Z,960.74
2017-01-23T00:45:07.623Z,960.74
2017-01-23T00:46:08.139Z,960.80
2017-01-23T00:47:07.685Z,960.77
2017-01-23T00:48:08.261Z,960.82
2017-01-23T00:49:08.076Z,960.79
2017-01-23T00:50:07.600Z,960.82
2017-01-23T00:51:08.153Z,960.79
2017-01-23T00:52:07.701Z,960.78
2017-01-23T00:53:08.237Z,960.84
2017-01-23T00:54:07.868Z,960.81
2017-01-23T00:55:07.379Z,960.85
2017-01-23T00:56:07.966Z,960.84
2017-01-23T00:57:07.497Z,960.79
2017-01-23T00:58:07.958Z,960.83
2017-01-23T00:59:07.676Z,960.83
2017-01-23T01:00:08.142Z,960.81
2017-01-23T01:01:07.586Z,960.83
2017-01-23T01:02:07.680Z,960.82
2017-01-23T01:03:07.519Z,960.81
2017-01-23T01:04:08.146Z,960.83
2017-01-23T01:05:08.144Z,960.86
2017-01-23T01:06:07.253Z,960.80
2017-01-23T01:07:07.894Z,960.79
2017-01-23T01:08:07.385Z,960.76
2017-01-23T01:09:08.051Z,960.79
2017-01-23T01:10:07.835Z,960.81
2017-01-23T01:11:07.426Z,960.78
2017-01-23T01:12:07.915Z,960.78
2017-01-23T01:13:07.291Z,960.80
2017-01-23T01:14:07.864Z,960.81
2017-01-23T01:15:07.635Z,960.80
2017-01-23T01:16:08.211Z,960.78
2017-01-23T01:17:07.974Z,960.78
2017-01-23T01:18:07.550Z,960.78
2017-01-23T01:19:08.055Z,960.74
2017-01-23T01:20:08.324Z,960.81
2017-01-23T01:21:07.943Z,960.74
2017-01-23T01:22:07.641Z,960.77
2017-01-23T01:23:08.252Z,960.73
2017-01-23T01:24:07.874Z,960.75
2017-01-23T01:25:07.498Z,960.76
2017-01-23T01:26:07.354Z,960.77
2017-01-23T01:27:07.800Z,960.79
2017-01-23T01:28:08.279Z,960.77
2017-01-23T01:29:07.773Z,960.78
2017-01-23T01:30:07.852Z,960.79
2017-01-23T01:31:07.489Z,960.82
2017-01-23T01:32:08.022Z,960.82
2017-01-23T01:33:07.715Z,960.79
2017-01-23T01:34:08.374Z,960.81
2017-01-23T01:35:08.095Z,960.81
2017-01-23T01:36:07.703Z,960.76
2017-01-23T01:37:08.201Z,960.86
2017-01-23T01:38:07.629Z,960.76
2017-01-23T01:39:08.133Z,960.79
2017-01-23T01:40:07.425Z,960.77
2017-01-23T01:41:07.750Z,960.81
2017-01-23T01:42:08.264Z,960.82
2017-01-23T01:43:08.541Z,960.80
2017-01-23T01:44:08.214Z,960.82
2017-01-23T01:45:07.725Z,960.83
2017-01-23T01:46:08.148Z,960.85
2017-01-23T01:47:08.337Z,960.80
2017-01-23T01:48:07.845Z,960.80
2017-01-23T01:49:07.284Z,960.84
2017-01-23T01:50:07.864Z,960.79
2017-01-23T01:51:07.331Z,960.83
2017-01-23T01:52:07.981Z,960.80
2017-01-23T01:53:07.430Z,960.83
2017-01-23T01:54:07.603Z,960.85
2017-01-23T01:55:08.143Z,960.85
2017-01-23T01:56:07.722Z,960.88
2017-01-23T01:57:08.291Z,960.88
2017-01-23T01:58:07.815Z,960.86
2017-01-23T01:59:07.267Z,960.88
2017-01-23T02:00:07.833Z,960.89
2017-01-23T02:01:07.492Z,960.84
2017-01-23T02:02:07.943Z,960.90
2017-01-23T02:03:07.490Z,960.90
2017-01-23T02:04:08.059Z,960.88
2017-01-23T02:05:07.766Z,960.91
2017-01-23T02:06:07.431Z,960.89
2017-01-23T02:07:08.047Z,960.94
2017-01-23T02:08:07.642Z,960.91
2017-01-23T02:09:08.296Z,960.91
2017-01-23T02:10:07.822Z,960.96
2017-01-23T02:11:07.466Z,960.95
2017-01-23T02:12:08.251Z,960.91
2017-01-23T02:13:07.862Z,960.89
2017-01-23T02:14:08.076Z,960.89
2017-01-23T02:15:08.111Z,960.87
2017-01-23T02:16:07.857Z,960.92
2017-01-23T02:17:07.623Z,960.90
2017-01-23T02:18:08.050Z,960.86
2017-01-23T02:19:07.387Z,960.84
2017-01-23T02:20:07.668Z,960.87
2017-01-23T02:21:08.291Z,960.87
2017-01-23T02:22:07.794Z,960.82
2017-01-23T02:23:07.576Z,960.81
2017-01-23T02:24:08.281Z,960.83
2017-01-23T02:25:07.895Z,960.82
2017-01-23T02:26:07.504Z,960.80
2017-01-23T02:27:08.281Z,960.85
2017-01-23T02:28:07.990Z,960.79
2017-01-23T02:29:07.450Z,960.79
2017-01-23T02:30:07.993Z,960.78
2017-01-23T02:31:07.447Z,960.77
2017-01-23T02:32:07.332Z,960.76
2017-01-23T02:33:07.795Z,960.78
2017-01-23T02:34:07.353Z,960.77
2017-01-23T02:35:08.072Z,960.77
2017-01-23T02:36:07.824Z,960.76
2017-01-23T02:37:07.495Z,960.76
2017-01-23T02:38:08.173Z,960.76
2017-01-23T02:39:07.971Z,960.69
2017-01-23T02:40:07.520Z,960.71
2017-01-23T02:41:08.064Z,960.68
2017-01-23T02:42:07.626Z,960.66
2017-01-23T02:43:08.121Z,960.63
2017-01-23T02:44:07.865Z,960.64
2017-01-23T02:45:07.600Z,960.63
2017-01-23T02:46:08.235Z,960.58
2017-01-23T02:47:07.732Z,960.62
2017-01-23T02:48:08.304Z,960.68
2017-01-23T02:49:07.896Z,960.59
2017-01-23T02:50:07.482Z,960.63
2017-01-23T02:51:08.092Z,960.61
2017-01-23T02:52:07.631Z,960.66
2017-01-23T02:53:08.183Z,960.64
2017-01-23T02:54:07.687Z,960.63
2017-01-23T02:55:08.301Z,960.62
2017-01-23T02:56:07.839Z,960.63
2017-01-23T02:57:07.525Z,960.57
2017-01-23T02:58:08.298Z,960.60
2017-01-23T02:59:07.936Z,960.60
2017-01-23T03:00:07.522Z,960.58
2017-01-23T03:01:08.073Z,960.59
2017-01-23T03:02:07.738Z,960.70
2017-01-23T03:03:08.346Z,960.65
2017-01-23T03:04:07.879Z,960.67
2017-01-23T03:05:07.377Z,960.70
2017-01-23T03:06:08.002Z,960.63
2017-01-23T03:07:07.574Z,960.62
2017-01-23T03:08:08.150Z,960.60
2017-01-23T03:09:07.814Z,960.62
2017-01-23T03:10:07.506Z,960.57
2017-01-23T03:11:08.172Z,960.57
2017-01-23T03:12:07.909Z,960.61
2017-01-23T03:13:07.491Z,960.57
2017-01-23T03:14:08.075Z,960.57
2017-01-23T03:15:07.739Z,960.57
2017-01-23T03:16:08.439Z,960.58
2017-01-23T03:17:08.199Z,960.58
2017-01-23T03:18:07.763Z,960.55
2017-01-23T03:19:07.406Z,960.58
2017-01-23T03:20:08.072Z,960.54
2017-01-23T03:21:07.711Z,960.56
2017-01-23T03:22:08.239Z,960.54
2017-01-23T03:23:08.324Z,960.53
2017-01-23T03:24:07.864Z,960.55
2017-01-23T03:25:07.340Z,960.52
2017-01-23T03:26:07.964Z,960.52
2017-01-23T03:27:07.583Z,960.51
2017-01-23T03:28:08.165Z,960.50
2017-01-23T03:29:07.760Z,960.50
2017-01-23T03:30:07.449Z,960.46
2017-01-23T03:31:07.978Z,960.50
2017-01-23T03:32:07.530Z,960.46
2017-01-23T03:33:08.130Z,960.52
2017-01-23T03:34:07.654Z,960.49
2017-01-23T03:35:08.261Z,960.51
2017-01-23T03:36:07.755Z,960.55
2017-01-23T03:37:07.324Z,960.51
2017-01-23T03:38:07.974Z,960.51
2017-01-23T03:39:07.803Z,960.50
2017-01-23T03:40:07.758Z,960.49
2017-01-23T03:41:07.417Z,960.49
2017-01-23T03:42:08.060Z,960.47
2017-01-23T03:43:07.604Z,960.48
2017-01-23T03:44:08.196Z,960.50
2017-01-23T03:45:07.668Z,960.45
2017-01-23T03:46:08.249Z,960.43
2017-01-23T03:47:07.841Z,960.46
2017-01-23T03:48:07.274Z,960.43
2017-01-23T03:49:07.767Z,960.41
2017-01-23T03:50:27.163Z,960.35
2017-01-23T03:51:07.957Z,960.37
2017-01-23T03:52:07.726Z,960.38
2017-01-23T03:53:08.331Z,960.35
2017-01-23T03:54:08.136Z,960.38
2017-01-23T03:55:07.804Z,960.36
2017-01-23T03:56:07.254Z,960.38
2017-01-23T03:57:07.859Z,960.43
2017-01-23T03:58:07.338Z,960.42
2017-01-23T03:59:07.934Z,960.38
2017-01-23T04:00:07.580Z,960.39
2017-01-23T04:01:08.158Z,960.44
2017-01-23T04:02:07.785Z,960.42
2017-01-23T04:03:07.488Z,960.37
2017-01-23T04:04:08.049Z,960.43
2017-01-23T04:05:07.657Z,960.40
2017-01-23T04:06:08.206Z,960.41
2017-01-23T04:07:07.824Z,960.41
2017-01-23T04:08:07.374Z,960.45
2017-01-23T04:09:08.058Z,960.49
2017-01-23T04:10:07.657Z,960.41
2017-01-23T04:11:07.821Z,960.41
2017-01-23T04:12:07.628Z,960.41
2017-01-23T04:13:08.208Z,960.39
2017-01-23T04:14:07.722Z,960.39
2017-01-23T04:15:07.457Z,960.37
2017-01-23T04:16:08.020Z,960.46
2017-01-23T04:17:07.751Z,960.33
2017-01-23T04:18:08.434Z,960.34
2017-01-23T04:19:07.975Z,960.32
2017-01-23T04:20:07.523Z,960.29
2017-01-23T04:21:08.081Z,960.27
2017-01-23T04:22:07.947Z,960.31
2017-01-23T04:23:17.112Z,960.26
2017-01-23T04:24:07.663Z,960.25
2017-01-23T04:25:08.246Z,960.29
2017-01-23T04:26:07.937Z,960.32
2017-01-23T04:27:07.438Z,960.28
2017-01-23T04:28:07.989Z,960.28
2017-01-23T04:29:07.524Z,960.25
2017-01-23T04:30:08.047Z,960.25
2017-01-23T04:31:07.611Z,960.31
2017-01-23T04:32:08.145Z,960.27
2017-01-23T04:33:07.650Z,960.26
2017-01-23T04:34:08.237Z,960.24
2017-01-23T04:35:07.741Z,960.23
2017-01-23T04:36:08.333Z,960.28
2017-01-23T04:37:08.085Z,960.31
2017-01-23T04:38:07.658Z,960.32
2017-01-23T04:39:08.273Z,960.32
2017-01-23T04:40:07.760Z,960.33
2017-01-23T04:41:07.285Z,960.35
2017-01-23T04:42:07.815Z,960.31
2017-01-23T04:43:07.367Z,960.29
2017-01-23T04:44:07.959Z,960.27
2017-01-23T04:45:07.681Z,960.26
2017-01-23T04:46:08.308Z,960.30
2017-01-23T04:47:08.012Z,960.33
2017-01-23T04:48:07.591Z,960.33
2017-01-23T04:49:08.159Z,960.30
2017-01-23T04:50:07.741Z,960.40
2017-01-23T04:51:08.359Z,960.35
2017-01-23T04:52:07.946Z,960.40
2017-01-23T04:53:07.430Z,960.41
2017-01-23T04:54:07.994Z,960.46
2017-01-23T04:55:07.499Z,960.44
2017-01-23T04:56:08.102Z,960.44
2017-01-23T04:57:07.952Z,960.44
2017-01-23T04:58:07.495Z,960.46
2017-01-23T04:59:08.068Z,960.45
2017-01-23T05:00:07.856Z,960.46
2017-01-23T05:01:07.362Z,960.39
2017-01-23T05:02:07.980Z,960.39
2017-01-23T05:03:07.597Z,960.44
2017-01-23T05:04:08.077Z,960.41
2017-01-23T05:05:07.739Z,960.42
2017-01-23T05:06:08.482Z,960.41
2017-01-23T05:07:07.956Z,960.42
2017-01-23T05:08:08.310Z,960.39
2017-01-23T05:09:07.922Z,960.38
2017-01-23T05:10:07.499Z,960.38
2017-01-23T05:11:08.048Z,960.39
2017-01-23T05:12:07.726Z,960.37
2017-01-23T05:13:08.261Z,960.40
2017-01-23T05:14:49.529Z,960.45
2017-01-23T05:15:08.195Z,960.45
2017-01-23T05:16:07.905Z,960.47
2017-01-23T05:17:07.640Z,960.46
2017-01-23T05:18:07.329Z,960.47
2017-01-23T05:19:07.853Z,960.45
2017-01-23T05:20:07.698Z,960.43
2017-01-23T05:21:08.359Z,960.41
2017-01-23T05:22:08.211Z,960.44
2017-01-23T05:23:07.781Z,960.48
2017-01-23T05:24:07.395Z,960.42
2017-01-23T05:25:10.814Z,960.45
2017-01-23T05:26:07.669Z,960.43
2017-01-23T05:27:08.345Z,960.43
2017-01-23T05:28:08.161Z,960.41
2017-01-23T05:29:07.881Z,960.43
2017-01-23T05:30:07.366Z,960.43
2017-01-23T05:31:07.966Z,960.40
2017-01-23T05:32:07.543Z,960.38
2017-01-23T05:33:09.170Z,960.34
2017-01-23T05:34:07.897Z,960.32
2017-01-23T05:35:07.417Z,960.31
2017-01-23T05:36:08.147Z,960.34
2017-01-23T05:37:07.620Z,960.28
2017-01-23T05:38:08.169Z,960.30
2017-01-23T05:39:07.791Z,960.26
2017-01-23T05:40:07.663Z,960.25
2017-01-23T05:41:08.360Z,960.28
2017-01-23T05:42:07.918Z,960.34
2017-01-23T05:43:07.644Z,960.36
2017-01-23T05:44:08.239Z,960.30
2017-01-23T05:45:07.800Z,960.37
2017-01-23T05:46:07.306Z,960.36
2017-01-23T05:47:07.924Z,960.43
2017-01-23T05:48:07.589Z,960.41
2017-01-23T05:49:07.512Z,960.46
2017-01-23T05:50:08.057Z,960.47
2017-01-23T05:51:07.819Z,960.48
2017-01-23T05:52:07.528Z,960.44
2017-01-23T05:53:08.098Z,960.45
2017-01-23T05:54:07.691Z,960.44
2017-01-23T05:55:08.220Z,960.46
2017-01-23T05:56:07.668Z,960.45
2017-01-23T05:57:08.449Z,960.46
2017-01-23T05:58:08.066Z,960.48
2017-01-23T05:59:07.604Z,960.43
2017-01-23T06:00:08.194Z,960.46
2017-01-23T06:01:07.708Z,960.45
2017-01-23T06:02:08.939Z,960.47
2017-01-23T06:03:07.487Z,960.47
2017-01-23T06:04:08.054Z,960.47
2017-01-23T06:05:07.769Z,960.50
2017-01-23T06:06:07.369Z,960.50
2017-01-23T06:07:08.247Z,960.49
2017-01-23T06:08:07.772Z,960.51
2017-01-23T06:09:07.328Z,960.49
2017-01-23T06:10:07.848Z,960.51
2017-01-23T06:11:07.654Z,960.53
2017-01-23T06:12:08.210Z,960.49
2017-01-23T06:13:07.738Z,960.47
2017-01-23T06:14:08.266Z,960.48
2017-01-23T06:15:07.854Z,960.50
2017-01-23T06:16:07.417Z,960.53
2017-01-23T06:17:08.306Z,960.47
2017-01-23T06:18:07.793Z,960.52
2017-01-23T06:19:07.322Z,960.52
2017-01-23T06:20:08.108Z,960.54
2017-01-23T06:21:07.655Z,960.46
2017-01-23T06:22:08.202Z,960.47
2017-01-23T06:23:07.840Z,960.49
2017-01-23T06:24:07.515Z,960.51
2017-01-23T06:25:08.106Z,960.50
2017-01-23T06:26:07.799Z,960.48
2017-01-23T06:27:07.384Z,960.52
2017-01-23T06:28:07.908Z,960.49
2017-01-23T06:29:07.435Z,960.48
2017-01-23T06:30:08.167Z,960.52
2017-01-23T06:31:07.660Z,960.54
2017-01-23T06:32:08.289Z,960.56
2017-01-23T06:33:07.772Z,960.58
2017-01-23T06:34:07.275Z,960.55
2017-01-23T06:35:07.876Z,960.59
2017-01-23T06:36:07.409Z,960.57
2017-01-23T06:37:08.120Z,960.57
2017-01-23T06:38:07.616Z,960.61
2017-01-23T06:39:08.221Z,960.55
2017-01-23T06:40:07.827Z,960.55
2017-01-23T06:41:07.310Z,960.54
2017-01-23T06:42:07.796Z,960.52
2017-01-23T06:43:07.517Z,960.54
2017-01-23T06:44:08.209Z,960.56
2017-01-23T06:45:07.750Z,960.56
2017-01-23T06:46:07.484Z,960.56
2017-01-23T06:47:08.109Z,960.65
2017-01-23T06:48:07.605Z,960.63
2017-01-23T06:49:08.186Z,960.62
2017-01-23T06:50:07.901Z,960.64
2017-01-23T06:51:07.431Z,960.64
2017-01-23T06:52:08.048Z,960.63
2017-01-23T06:53:07.976Z,960.64
2017-01-23T06:54:07.741Z,960.60
2017-01-23T06:55:08.287Z,960.58
2017-01-23T06:56:07.893Z,960.60
2017-01-23T06:57:07.665Z,960.61
2017-01-23T06:58:08.493Z,960.61
2017-01-23T06:59:08.090Z,960.59
2017-01-23T07:00:07.578Z,960.61
2017-01-23T07:01:08.165Z,960.64
2017-01-23T07:02:07.657Z,960.60
2017-01-23T07:03:08.295Z,960.59
2017-01-23T07:04:07.523Z,960.55
2017-01-23T07:05:08.308Z,960.60
2017-01-23T07:06:07.899Z,960.56
2017-01-23T07:07:07.605Z,960.63
2017-01-23T07:08:08.253Z,960.55
2017-01-23T07:09:07.953Z,960.56
2017-01-23T07:10:07.455Z,960.60
2017-01-23T07:11:08.064Z,960.56
2017-01-23T07:12:07.616Z,960.58
2017-01-23T07:13:08.218Z,960.54
2017-01-23T07:15:07.269Z,960.57
2017-01-23T07:15:10.959Z,960.55
2017-01-23T07:16:07.578Z,960.54
2017-01-23T07:17:08.232Z,960.57
2017-01-23T07:18:17.703Z,960.59
2017-01-23T07:19:08.299Z,960.55
2017-01-23T07:20:07.822Z,960.56
2017-01-23T07:21:07.280Z,960.54
2017-01-23T07:22:07.911Z,960.58
2017-01-23T07:23:07.417Z,960.46
2017-01-23T07:24:07.986Z,960.49
2017-01-23T07:25:07.571Z,960.53
2017-01-23T07:26:08.047Z,960.50
2017-01-23T07:27:07.590Z,960.55
2017-01-23T07:28:08.173Z,960.52
2017-01-23T07:29:07.683Z,960.53
2017-01-23T07:30:08.253Z,960.55
2017-01-23T07:31:07.829Z,960.56
2017-01-23T07:32:07.381Z,960.57
2017-01-23T07:33:07.954Z,960.56
2017-01-23T07:34:07.421Z,960.56
2017-01-23T07:35:08.025Z,960.57
2017-01-23T07:36:07.522Z,960.57
2017-01-23T07:37:08.113Z,960.54
2017-01-23T07:38:07.804Z,960.52
2017-01-23T07:39:07.653Z,960.52
2017-01-23T07:40:08.221Z,960.48
2017-01-23T07:41:07.716Z,960.51
2017-01-23T07:42:08.379Z,960.56
2017-01-23T07:43:07.873Z,960.58
2017-01-23T07:44:07.404Z,960.56
2017-01-23T07:45:07.941Z,960.49
2017-01-23T07:46:07.893Z,960.52
2017-01-23T07:47:08.838Z,960.52
2017-01-23T07:48:07.532Z,960.54
2017-01-23T07:49:08.092Z,960.51
2017-01-23T07:50:07.646Z,960.46
2017-01-23T07:51:08.134Z,960.51
2017-01-23T07:52:07.689Z,960.54
2017-01-23T07:53:08.244Z,960.57
2017-01-23T07:54:07.797Z,960.50
2017-01-23T07:55:07.291Z,960.53
2017-01-23T07:56:07.852Z,960.54
2017-01-23T07:57:07.533Z,960.51
2017-01-23T07:58:08.978Z,960.53
2017-01-23T07:59:07.527Z,960.56
2017-01-23T08:00:08.307Z,960.61
2017-01-23T08:01:07.876Z,960.57
2017-01-23T08:02:07.555Z,960.66
2017-01-23T08:03:08.108Z,960.62
2017-01-23T08:04:07.632Z,960.63
2017-01-23T08:05:08.144Z,960.67
2017-01-23T08:06:07.777Z,960.66
2017-01-23T08:07:07.470Z,960.66
2017-01-23T08:08:08.139Z,960.64
2017-01-23T08:09:08.176Z,960.68
2017-01-23T08:10:07.861Z,960.69
2017-01-23T08:11:07.708Z,960.72
2017-01-23T08:12:08.288Z,960.70
2017-01-23T08:13:07.787Z,960.77
2017-01-23T08:14:07.300Z,960.77
2017-01-23T08:15:07.870Z,960.73
2017-01-23T08:16:07.469Z,960.70
2017-01-23T08:17:08.243Z,960.72
2017-01-23T08:18:07.986Z,960.73
2017-01-23T08:19:07.767Z,960.76
2017-01-23T08:20:07.408Z,960.81
2017-01-23T08:21:08.016Z,960.80
2017-01-23T08:22:07.579Z,960.73
2017-01-23T08:23:08.117Z,960.74
2017-01-23T08:24:07.699Z,960.75
2017-01-23T08:25:08.269Z,960.75
2017-01-23T08:26:07.730Z,960.75
2017-01-23T08:27:08.347Z,960.75
2017-01-23T08:28:07.952Z,960.71
2017-01-23T08:29:07.511Z,960.72
2017-01-23T08:30:08.153Z,960.73
2017-01-23T08:31:07.943Z,960.74
2017-01-23T08:32:07.474Z,960.82
2017-01-23T08:33:08.015Z,960.79
2017-01-23T08:34:07.520Z,960.77
2017-01-23T08:35:08.055Z,960.75
2017-01-23T08:36:07.598Z,960.79
2017-01-23T08:37:08.172Z,960.82
2017-01-23T08:38:07.713Z,960.80
2017-01-23T08:39:08.376Z,960.85
2017-01-23T08:40:07.968Z,960.85
2017-01-23T08:41:07.769Z,960.84
2017-01-23T08:42:08.280Z,960.79
2017-01-23T08:43:08.238Z,960.81
2017-01-23T08:44:07.833Z,960.80
2017-01-23T08:45:07.372Z,960.82
2017-01-23T08:46:07.933Z,960.80
2017-01-23T08:47:07.486Z,960.83
2017-01-23T08:48:07.998Z,960.87
2017-01-23T08:49:07.464Z,960.82
2017-01-23T08:50:07.692Z,960.82
2017-01-23T08:51:08.231Z,960.84
2017-01-23T08:52:07.937Z,960.76
2017-01-23T08:53:07.378Z,960.81
2017-01-23T08:54:07.970Z,960.78
2017-01-23T08:55:07.422Z,960.81
2017-01-23T08:56:08.201Z,960.78
2017-01-23T08:57:07.754Z,960.82
2017-01-23T08:58:07.266Z,960.82
2017-01-23T08:59:07.772Z,960.86
2017-01-23T09:00:07.277Z,960.89
2017-01-23T09:01:07.793Z,960.88
2017-01-23T09:02:08.631Z,960.88
2017-01-23T09:03:08.193Z,960.89
2017-01-23T09:04:07.763Z,960.82
2017-01-23T09:05:07.362Z,960.82
2017-01-23T09:06:07.946Z,960.84
2017-01-23T09:07:07.626Z,960.80
2017-01-23T09:08:08.160Z,960.82
2017-01-23T09:09:07.814Z,960.82
2017-01-23T09:10:07.367Z,960.78
2017-01-23T09:11:07.851Z,960.88
2017-01-23T09:12:07.934Z,960.82
2017-01-23T09:13:07.520Z,960.82
2017-01-23T09:14:08.110Z,960.86
2017-01-23T09:15:07.996Z,960.82
2017-01-23T09:16:07.585Z,960.95
2017-01-23T09:17:08.303Z,960.90
2017-01-23T09:18:07.883Z,960.90
2017-01-23T09:19:07.377Z,960.91
2017-01-23T09:20:07.960Z,960.90
2017-01-23T09:21:07.553Z,960.90
2017-01-23T09:22:08.230Z,960.89
2017-01-23T09:23:07.725Z,960.88
2017-01-23T09:24:08.254Z,960.87
2017-01-23T09:25:07.515Z,960.82
2017-01-23T09:26:08.058Z,960.83
2017-01-23T09:27:07.572Z,960.79
2017-01-23T09:28:08.101Z,960.80
2017-01-23T09:29:07.653Z,960.79
2017-01-23T09:30:08.265Z,960.79
2017-01-23T09:31:07.906Z,960.74
2017-01-23T09:32:07.497Z,960.78
2017-01-23T09:33:08.028Z,960.71
2017-01-23T09:34:07.600Z,960.74
2017-01-23T09:35:08.180Z,960.72
2017-01-23T09:36:07.727Z,960.72
2017-01-23T09:37:08.248Z,960.82
2017-01-23T09:38:07.817Z,960.81
2017-01-23T09:39:07.407Z,960.74
2017-01-23T09:40:07.967Z,960.73
2017-01-23T09:41:07.587Z,960.75
2017-01-23T09:42:08.197Z,960.76
2017-01-23T09:43:07.814Z,960.77
2017-01-23T09:44:07.268Z,960.79
2017-01-23T09:45:07.800Z,960.80
2017-01-23T09:46:07.374Z,960.76
2017-01-23T09:47:07.846Z,960.78
2017-01-23T09:48:07.590Z,960.80
2017-01-23T09:49:09.237Z,960.72
2017-01-23T09:50:08.070Z,960.85
2017-01-23T09:51:07.597Z,960.78
2017-01-23T09:52:08.159Z,960.79
2017-01-23T09:53:07.731Z,960.80
2017-01-23T09:54:08.310Z,960.82
2017-01-23T09:55:07.800Z,960.76
2017-01-23T09:56:07.572Z,960.79
2017-01-23T09:57:08.081Z,960.77
2017-01-23T09:58:07.501Z,960.79
2017-01-23T09:59:07.644Z,960.76
2017-01-23T10:00:08.225Z,960.77
2017-01-23T10:01:08.020Z,960.77
2017-01-23T10:02:07.523Z,960.79
2017-01-23T10:03:08.131Z,960.77
2017-01-23T10:04:07.748Z,960.75
2017-01-23T10:05:08.319Z,960.75
2017-01-23T10:06:07.879Z,960.76
2017-01-23T10:07:21.901Z,960.76
2017-01-23T10:08:07.494Z,960.74
2017-01-23T10:09:08.190Z,960.76
2017-01-23T10:10:07.791Z,960.76
2017-01-23T10:11:07.385Z,960.78
2017-01-23T10:12:07.979Z,960.74
2017-01-23T10:13:07.473Z,960.75
2017-01-23T10:14:07.934Z,960.70
2017-01-23T10:15:07.420Z,960.74
2017-01-23T10:16:08.162Z,960.71
2017-01-23T10:17:08.030Z,960.71
2017-01-23T10:18:07.462Z,960.68
2017-01-23T10:19:07.973Z,960.69
2017-01-23T10:20:07.554Z,960.66
2017-01-23T10:21:08.117Z,960.66
2017-01-23T10:22:07.570Z,960.64
2017-01-23T10:23:08.057Z,960.65
2017-01-23T10:24:07.620Z,960.62
2017-01-23T10:25:08.213Z,960.61
2017-01-23T10:26:07.855Z,960.60
2017-01-23T10:27:07.362Z,960.57
2017-01-23T10:28:08.135Z,960.53
2017-01-23T10:29:07.707Z,960.55
2017-01-23T10:30:08.325Z,960.56
2017-01-23T10:31:07.895Z,960.51
2017-01-23T10:32:07.809Z,960.53
2017-01-23T10:33:07.267Z,960.51
2017-01-23T10:34:07.741Z,960.53
2017-01-23T10:35:08.220Z,960.51
2017-01-23T10:36:07.838Z,960.54
2017-01-23T10:37:07.395Z,960.48
2017-01-23T10:38:07.896Z,960.50
2017-01-23T10:39:07.507Z,960.49
2017-01-23T10:40:08.014Z,960.49
2017-01-23T10:41:07.546Z,960.45
2017-01-23T10:42:08.083Z,960.47
2017-01-23T10:43:07.656Z,960.47
2017-01-23T10:44:08.109Z,960.44
2017-01-23T10:45:08.124Z,960.48
2017-01-23T10:46:07.665Z,960.39
2017-01-23T10:47:08.310Z,960.44
2017-01-23T10:48:07.887Z,960.46
2017-01-23T10:49:07.433Z,960.44
2017-01-23T10:50:08.033Z,960.40
2017-01-23T10:51:07.646Z,960.39
2017-01-23T10:52:08.413Z,960.41
2017-01-23T10:53:07.884Z,960.37
2017-01-23T10:54:07.532Z,960.41
2017-01-23T10:55:08.126Z,960.40
2017-01-23T10:56:07.718Z,960.39
2017-01-23T10:57:08.250Z,960.41
2017-01-23T10:58:07.775Z,960.40
2017-01-23T10:59:07.529Z,960.39
2017-01-23T11:00:08.135Z,960.35
2017-01-23T11:01:07.674Z,960.42
2017-01-23T11:02:08.261Z,960.34
2017-01-23T11:03:07.802Z,960.36
2017-01-23T11:04:07.751Z,960.33
2017-01-23T11:05:08.329Z,960.29
2017-01-23T11:06:07.966Z,960.29
2017-01-23T11:07:07.421Z,960.28
2017-01-23T11:08:07.893Z,960.29
2017-01-23T11:09:07.601Z,960.28
2017-01-23T11:10:08.207Z,960.27
2017-01-23T11:11:07.722Z,960.25
2017-01-23T11:12:08.341Z,960.20
2017-01-23T11:13:08.194Z,960.18
2017-01-23T11:14:08.815Z,960.18
2017-01-23T11:15:07.435Z,960.20
2017-01-23T11:16:08.048Z,960.16
2017-01-23T11:17:07.800Z,960.18
2017-01-23T11:18:07.398Z,960.16
2017-01-23T11:19:08.036Z,960.14
2017-01-23T11:20:07.615Z,960.16
2017-01-23T11:21:08.095Z,960.14
2017-01-23T11:22:07.742Z,960.12
2017-01-23T11:23:08.190Z,960.16
2017-01-23T11:24:08.129Z,960.17
2017-01-23T11:25:07.615Z,960.15
2017-01-23T11:26:08.398Z,960.14
2017-01-23T11:27:08.293Z,960.18
2017-01-23T11:28:07.730Z,960.20
2017-01-23T11:29:08.305Z,960.13
2017-01-23T11:30:07.915Z,960.12
2017-01-23T11:31:07.632Z,960.17
2017-01-23T11:32:08.240Z,960.12
2017-01-23T11:33:07.694Z,960.12
2017-01-23T11:34:08.290Z,960.11
2017-01-23T11:35:07.936Z,960.12
2017-01-23T11:36:07.711Z,960.10
2017-01-23T11:37:08.741Z,960.07
2017-01-23T11:38:07.397Z,960.05
2017-01-23T11:39:08.047Z,960.02
2017-01-23T11:40:07.692Z,960.02
2017-01-23T11:41:08.290Z,960.06
2017-01-23T11:42:07.896Z,960.05
2017-01-23T11:43:07.424Z,960.04
2017-01-23T11:44:07.973Z,960.07
2017-01-23T11:45:07.603Z,960.04
2017-01-23T11:46:08.157Z,960.05
2017-01-23T11:47:07.885Z,960.01
2017-01-23T11:48:07.386Z,960.03
2017-01-23T11:49:08.301Z,960.06
2017-01-23T11:50:07.823Z,960.06
2017-01-23T11:51:07.389Z,960.05
2017-01-23T11:52:08.021Z,960.06
2017-01-23T11:53:07.596Z,960.04
2017-01-23T11:54:08.230Z,960.02
2017-01-23T11:55:07.862Z,959.98
2017-01-23T11:56:07.603Z,959.97
2017-01-23T11:57:08.195Z,959.96
2017-01-23T11:58:07.742Z,959.90
2017-01-23T11:59:08.294Z,959.92
2017-01-23T12:00:07.849Z,959.91
2017-01-23T12:01:07.363Z,959.87
2017-01-23T12:02:07.884Z,959.88
2017-01-23T12:03:07.362Z,959.88
2017-01-23T12:04:07.854Z,959.90
2017-01-23T12:05:07.644Z,959.87
2017-01-23T12:06:08.192Z,959.84
2017-01-23T12:07:07.743Z,959.83
2017-01-23T12:08:08.408Z,959.85
2017-01-23T12:09:08.013Z,959.86
2017-01-23T12:10:07.520Z,959.86
2017-01-23T12:11:08.064Z,959.87
2017-01-23T12:12:07.595Z,959.79
2017-01-23T12:13:08.114Z,959.82
2017-01-23T12:14:07.645Z,959.79
2017-01-23T12:15:08.164Z,959.76
2017-01-23T12:16:07.973Z,959.79
2017-01-23T12:17:07.639Z,959.76
2017-01-23T12:18:08.247Z,959.73
2017-01-23T12:19:07.907Z,959.76
2017-01-23T12:20:07.353Z,959.74
2017-01-23T12:21:07.716Z,959.66
2017-01-23T12:22:08.283Z,959.69
2017-01-23T12:23:07.717Z,959.67
2017-01-23T12:24:08.229Z,959.67
2017-01-23T12:25:07.812Z,959.67
2017-01-23T12:26:07.582Z,959.67
2017-01-23T12:27:08.158Z,959.70
2017-01-23T12:28:07.662Z,959.64